createdAt,value
2022-10-22T00:01:03.849Z,6.47
2022-10-22T00:03:30.622Z,6.47
2022-10-22T00:05:57.297Z,6.30
2022-10-22T00:08:24.056Z,6.83
2022-10-22T00:10:50.828Z,5.63
2022-10-22T00:13:17.602Z,5.33
2022-10-22T00:15:44.313Z,5.87
2022-10-22T00:18:11.294Z,5.90
2022-10-22T00:20:37.976Z,7.63
2022-10-22T00:23:04.834Z,5.63
2022-10-22T00:25:33.837Z,6.53
2022-10-22T00:28:00.498Z,6.17
2022-10-22T00:30:28.783Z,6.27
2022-10-22T00:32:55.446Z,7.20
2022-10-22T00:35:22.111Z,8.77
2022-10-22T00:37:48.766Z,7.90
2022-10-22T00:40:15.456Z,8.30
2022-10-22T00:42:42.624Z,8.27
2022-10-22T00:45:09.638Z,8.90
2022-10-22T00:47:42.912Z,6.97
2022-10-22T00:50:15.727Z,5.60
2022-10-22T00:52:42.777Z,6.10
2022-10-22T00:55:09.933Z,7.87
2022-10-22T00:57:36.978Z,6.00
2022-10-22T01:00:05.810Z,5.60
2022-10-22T01:02:32.909Z,5.17
2022-10-22T01:04:59.841Z,5.87
2022-10-22T01:07:26.814Z,5.93
2022-10-22T01:10:05.391Z,6.53
2022-10-22T01:12:50.705Z,8.57
2022-10-22T01:15:28.899Z,6.13
2022-10-22T01:18:12.456Z,7.97
2022-10-22T01:21:10.508Z,7.23
2022-10-22T01:24:01.796Z,5.40
2022-10-22T01:26:56.208Z,7.23
2022-10-22T01:29:29.305Z,5.73
2022-10-22T01:32:04.708Z,6.53
2022-10-22T01:34:33.443Z,5.90
2022-10-22T01:37:01.749Z,6.87
2022-10-22T01:39:30.924Z,5.87
2022-10-22T01:41:59.097Z,5.83
2022-10-22T01:44:34.146Z,7.83
2022-10-22T01:47:32.424Z,6.93
2022-10-22T01:50:30.903Z,9.47
2022-10-22T01:53:24.083Z,5.33
2022-10-22T01:56:02.987Z,9.07
2022-10-22T01:58:42.320Z,5.20
2022-10-22T02:01:41.438Z,10.97
2022-10-22T02:04:18.321Z,5.60
2022-10-22T02:06:46.919Z,7.43
2022-10-22T02:09:16.146Z,5.70
2022-10-22T02:11:44.147Z,6.33
2022-10-22T02:14:11.706Z,5.17
2022-10-22T02:16:44.658Z,5.50
2022-10-22T02:19:17.975Z,8.03
2022-10-22T02:21:45.075Z,10.63
2022-10-22T02:24:12.311Z,6.67
2022-10-22T02:27:03.882Z,6.80
2022-10-22T02:29:44.607Z,7.93
2022-10-22T02:32:16.412Z,11.93
2022-10-22T02:34:43.524Z,6.13
2022-10-22T02:37:10.409Z,5.90
2022-10-22T02:39:38.525Z,10.03
2022-10-22T02:42:05.352Z,7.87
2022-10-22T02:44:32.120Z,8.57
2022-10-22T02:46:59.743Z,10.50
2022-10-22T02:49:26.745Z,7.47
2022-10-22T02:51:53.488Z,7.73
2022-10-22T02:54:20.228Z,8.47
2022-10-22T02:56:46.946Z,5.90
2022-10-22T02:59:13.652Z,5.30
2022-10-22T03:01:40.347Z,10.23
2022-10-22T03:04:07.299Z,8.37
2022-10-22T03:06:34.027Z,8.60
2022-10-22T03:09:00.832Z,7.70
2022-10-22T03:11:27.590Z,7.73
2022-10-22T03:13:54.372Z,9.53
2022-10-22T03:16:21.074Z,6.03
2022-10-22T03:18:47.774Z,7.70
2022-10-22T03:21:40.288Z,14.63
2022-10-22T03:24:13.324Z,8.10
2022-10-22T03:26:41.541Z,8.43
2022-10-22T03:29:10.387Z,6.93
2022-10-22T03:31:37.157Z,8.53
2022-10-22T03:34:03.899Z,21.17
2022-10-22T03:36:31.766Z,17.83
2022-10-22T03:39:00.122Z,14.50
2022-10-22T03:41:27.449Z,13.83
2022-10-22T03:43:54.657Z,13.53
2022-10-22T03:46:21.349Z,12.27
2022-10-22T03:48:48.040Z,10.47
2022-10-22T03:51:14.942Z,11.20
2022-10-22T03:53:41.707Z,9.90
2022-10-22T03:56:10.423Z,9.13
2022-10-22T03:58:38.505Z,7.57
2022-10-22T04:01:07.452Z,11.07
2022-10-22T04:03:34.574Z,7.57
2022-10-22T04:06:07.586Z,8.00
2022-10-22T04:08:34.801Z,8.53
2022-10-22T04:11:01.754Z,9.27
2022-10-22T04:13:28.537Z,9.03
2022-10-22T04:15:55.339Z,13.43
2022-10-22T04:18:23.319Z,10.67
2022-10-22T04:20:52.145Z,9.17
2022-10-22T04:23:18.880Z,7.40
2022-10-22T04:25:45.603Z,7.80
2022-10-22T04:28:12.353Z,6.77
2022-10-22T04:30:39.090Z,6.70
2022-10-22T04:33:05.804Z,6.53
2022-10-22T04:35:32.496Z,9.83
2022-10-22T04:37:59.219Z,7.80
2022-10-22T04:40:25.937Z,5.67
2022-10-22T04:42:52.627Z,6.93
2022-10-22T04:45:19.307Z,7.50
2022-10-22T04:47:46.031Z,6.30
2022-10-22T04:50:12.754Z,10.30
2022-10-22T04:52:39.467Z,7.13
2022-10-22T04:55:06.585Z,9.65
2022-10-22T04:57:33.445Z,7.20
2022-10-22T05:00:00.144Z,9.50
2022-10-22T05:02:26.831Z,7.37
2022-10-22T05:04:53.549Z,7.47
2022-10-22T05:07:20.297Z,8.60
2022-10-22T05:09:46.980Z,7.00
2022-10-22T05:12:13.652Z,9.17
2022-10-22T05:14:43.993Z,11.43
2022-10-22T05:17:11.783Z,7.63
2022-10-22T05:19:38.522Z,8.63
2022-10-22T05:22:05.589Z,13.83
2022-10-22T05:24:34.342Z,7.70
2022-10-22T05:27:01.042Z,10.73
2022-10-22T05:29:28.009Z,11.80
2022-10-22T05:31:54.983Z,9.27
2022-10-22T05:34:21.890Z,9.50
2022-10-22T05:36:48.577Z,10.57
2022-10-22T05:39:15.473Z,7.47
2022-10-22T05:41:42.272Z,9.00
2022-10-22T05:44:11.999Z,6.43
2022-10-22T05:46:38.742Z,6.27
2022-10-22T05:49:06.901Z,8.00
2022-10-22T05:51:37.243Z,6.23
2022-10-22T05:54:07.458Z,5.97
2022-10-22T05:56:34.699Z,9.60
2022-10-22T06:01:37.506Z,8.47
2022-10-22T06:04:07.454Z,7.33
2022-10-22T06:06:48.834Z,7.90
2022-10-22T06:09:29.384Z,5.80
2022-10-22T06:11:57.299Z,7.57
2022-10-22T06:14:25.076Z,9.07
2022-10-22T06:16:52.279Z,5.13
2022-10-22T06:19:21.707Z,6.37
2022-10-22T06:21:48.888Z,8.47
2022-10-22T06:24:16.034Z,6.13
2022-10-22T06:26:42.845Z,6.37
2022-10-22T06:29:09.839Z,6.10
2022-10-22T06:31:37.072Z,5.73
2022-10-22T06:34:10.036Z,4.67
2022-10-22T06:36:37.265Z,5.33
2022-10-22T06:39:04.492Z,7.83
2022-10-22T06:41:31.394Z,3.40
2022-10-22T06:43:58.342Z,4.47
2022-10-22T06:46:26.170Z,5.80
2022-10-22T06:49:00.936Z,5.47
2022-10-22T06:51:28.493Z,7.67
2022-10-22T06:53:56.952Z,6.53
2022-10-22T06:56:26.479Z,7.23
2022-10-22T06:58:55.448Z,6.17
2022-10-22T07:01:31.309Z,6.27
2022-10-22T07:03:58.170Z,6.53
2022-10-22T07:06:26.047Z,4.90
2022-10-22T07:08:54.622Z,6.67
2022-10-22T07:11:30.792Z,4.13
2022-10-22T07:13:59.473Z,3.43
2022-10-22T07:16:29.668Z,6.90
2022-10-22T07:18:59.698Z,3.17
2022-10-22T07:21:26.394Z,2.87
2022-10-22T07:23:53.109Z,7.85
2022-10-22T07:26:20.445Z,4.75
2022-10-22T07:28:47.767Z,3.90
2022-10-22T07:31:17.934Z,5.22
2022-10-22T07:33:48.185Z,3.25
2022-10-22T07:36:20.173Z,3.45
2022-10-22T07:38:49.412Z,4.55
2022-10-22T07:41:17.589Z,2.45
2022-10-22T07:43:46.108Z,2.30
2022-10-22T07:46:13.311Z,2.55
2022-10-22T07:48:40.106Z,1.65
2022-10-22T07:51:07.338Z,1.45
2022-10-22T07:53:34.262Z,2.47
2022-10-22T07:56:01.056Z,1.95
2022-10-22T07:58:27.749Z,3.63
2022-10-22T08:01:01.011Z,1.23
2022-10-22T08:03:29.158Z,2.95
2022-10-22T08:05:55.910Z,3.08
2022-10-22T08:08:25.865Z,2.78
2022-10-22T08:10:56.835Z,2.75
2022-10-22T08:13:23.967Z,1.92
2022-10-22T08:15:52.461Z,3.28
2022-10-22T08:18:23.027Z,1.75
2022-10-22T08:20:49.680Z,2.20
2022-10-22T08:23:16.620Z,3.25
2022-10-22T08:25:43.323Z,2.17
2022-10-22T08:28:09.991Z,3.03
2022-10-22T08:30:38.643Z,5.25
2022-10-22T08:33:06.194Z,3.80
2022-10-22T08:35:32.889Z,7.68
2022-10-22T08:37:59.598Z,3.72
2022-10-22T08:40:32.786Z,5.32
2022-10-22T08:43:08.366Z,1.88
2022-10-22T08:46:03.376Z,5.15
2022-10-22T08:48:48.295Z,1.30
2022-10-22T08:51:26.473Z,2.75
2022-10-22T08:54:12.015Z,2.03
2022-10-22T08:56:41.887Z,2.95
2022-10-22T08:59:23.321Z,1.98
2022-10-22T09:01:53.752Z,4.18
2022-10-22T09:04:29.324Z,3.22
2022-10-22T09:06:58.383Z,1.92
2022-10-22T09:09:30.158Z,2.75
2022-10-22T09:11:59.752Z,8.48
2022-10-22T09:14:27.332Z,6.10
2022-10-22T09:17:15.131Z,2.35
2022-10-22T09:20:26.238Z,2.25
2022-10-22T09:23:04.660Z,3.65
2022-10-22T09:25:33.667Z,2.97
2022-10-22T09:28:00.374Z,2.88
2022-10-22T09:30:35.172Z,2.25
2022-10-22T09:33:05.883Z,2.17
2022-10-22T09:35:56.215Z,1.83
2022-10-22T09:38:29.541Z,2.20
2022-10-22T09:40:59.311Z,1.13
2022-10-22T09:43:26.254Z,2.15
2022-10-22T09:45:58.695Z,1.23
2022-10-22T09:48:39.118Z,4.53
2022-10-22T09:51:41.690Z,1.05
2022-10-22T09:54:34.263Z,3.08
2022-10-22T09:57:17.769Z,2.35
2022-10-22T09:59:47.999Z,3.03
2022-10-22T10:02:20.024Z,2.33
2022-10-22T10:04:56.323Z,2.90
2022-10-22T10:07:30.358Z,3.55
2022-10-22T10:09:57.306Z,2.38
2022-10-22T10:15:22.501Z,1.25
2022-10-22T10:18:14.828Z,1.95
2022-10-22T10:20:57.304Z,2.13
2022-10-22T10:24:07.908Z,2.53
2022-10-22T10:26:41.022Z,2.78
2022-10-22T10:29:30.713Z,3.42
2022-10-22T10:32:23.740Z,1.60
2022-10-22T10:35:03.592Z,4.07
2022-10-22T10:37:38.395Z,2.25
2022-10-22T10:40:30.866Z,3.20
2022-10-22T10:43:24.034Z,3.05
2022-10-22T10:46:07.825Z,4.22
2022-10-22T10:48:54.073Z,3.88
2022-10-22T10:51:45.679Z,4.25
2022-10-22T10:54:25.132Z,4.25
2022-10-22T10:56:54.915Z,3.53
2022-10-22T10:59:34.192Z,5.28
2022-10-22T11:02:33.703Z,5.28
2022-10-22T11:05:20.860Z,3.80
2022-10-22T11:08:01.747Z,3.28
2022-10-22T11:10:37.750Z,3.85
2022-10-22T11:13:31.924Z,4.30
2022-10-22T11:16:07.901Z,3.72
2022-10-22T11:18:44.041Z,3.17
2022-10-22T11:21:27.090Z,2.63
2022-10-22T11:24:02.184Z,4.72
2022-10-22T11:26:45.110Z,5.78
2022-10-22T11:29:16.285Z,3.88
2022-10-22T11:31:44.497Z,2.92
2022-10-22T11:34:35.309Z,2.25
2022-10-22T11:37:04.132Z,4.95
2022-10-22T11:39:40.364Z,1.85
2022-10-22T11:42:12.022Z,9.20
2022-10-22T11:45:13.600Z,2.90
2022-10-22T11:48:10.763Z,3.03
2022-10-22T11:50:47.250Z,3.10
2022-10-22T11:53:13.952Z,3.10
2022-10-22T11:55:47.964Z,4.13
2022-10-22T11:58:35.917Z,2.83
2022-10-22T12:01:02.558Z,2.05
2022-10-22T12:03:32.044Z,1.63
2022-10-22T12:06:15.383Z,2.95
2022-10-22T12:08:54.430Z,2.53
2022-10-22T12:11:49.511Z,2.22
2022-10-22T12:14:26.694Z,2.60
2022-10-22T12:17:08.680Z,1.10
2022-10-22T12:19:40.445Z,5.60
2022-10-22T12:22:09.843Z,1.58
2022-10-22T12:24:46.816Z,2.85
2022-10-22T12:27:30.032Z,4.90
2022-10-22T12:29:58.746Z,2.00
2022-10-22T12:32:37.332Z,3.20
2022-10-22T12:35:07.900Z,3.22
2022-10-22T12:37:38.217Z,2.10
2022-10-22T12:40:35.126Z,3.92
2022-10-22T12:43:13.636Z,8.13
2022-10-22T12:45:42.797Z,1.55
2022-10-22T12:48:23.837Z,1.67
2022-10-22T12:50:58.526Z,2.00
2022-10-22T12:53:32.884Z,6.00
2022-10-22T12:56:10.832Z,2.30
2022-10-22T12:58:44.468Z,2.50
2022-10-22T13:01:14.072Z,1.35
2022-10-22T13:03:44.715Z,4.90
2022-10-22T13:06:20.345Z,1.77
2022-10-22T13:09:16.438Z,4.35
2022-10-22T13:11:51.484Z,2.40
2022-10-22T13:14:37.429Z,4.07
2022-10-22T13:17:17.042Z,2.10
2022-10-22T13:19:49.466Z,1.38
2022-10-22T13:22:53.089Z,1.67
2022-10-22T13:25:24.539Z,3.28
2022-10-22T13:28:13.034Z,2.80
2022-10-22T13:30:53.041Z,2.70
2022-10-22T13:33:43.114Z,1.58
2022-10-22T13:36:14.475Z,3.40
2022-10-22T13:38:42.008Z,1.00
2022-10-22T13:41:26.922Z,1.58
2022-10-22T13:43:54.719Z,2.30
2022-10-22T13:46:23.081Z,2.30
2022-10-22T13:48:52.754Z,3.88
2022-10-22T13:51:37.400Z,3.33
2022-10-22T13:54:10.203Z,1.13
2022-10-22T13:56:36.950Z,4.25
2022-10-22T13:59:03.694Z,2.55
2022-10-22T14:01:30.652Z,1.08
2022-10-22T14:03:59.547Z,4.45
2022-10-22T14:06:29.838Z,1.70
2022-10-22T14:09:02.410Z,2.85
2022-10-22T14:11:31.344Z,5.05
2022-10-22T14:13:58.679Z,2.45
2022-10-22T14:16:28.065Z,1.08
2022-10-22T14:18:56.213Z,1.45
2022-10-22T14:21:23.433Z,4.10
2022-10-22T14:23:51.636Z,3.53
2022-10-22T14:26:32.801Z,4.15
2022-10-22T14:29:15.691Z,1.42
2022-10-22T14:31:44.508Z,3.00
2022-10-22T14:34:13.615Z,2.25
2022-10-22T14:36:40.410Z,2.95
2022-10-22T14:39:07.157Z,1.00
2022-10-22T14:41:34.132Z,3.95
2022-10-22T14:44:01.728Z,2.03
2022-10-22T14:46:28.434Z,1.52
2022-10-22T14:48:55.117Z,2.88
2022-10-22T14:51:22.049Z,1.92
2022-10-22T14:53:49.224Z,5.45
2022-10-22T14:56:21.277Z,4.47
2022-10-22T14:58:48.982Z,4.35
2022-10-22T15:01:15.808Z,3.03
2022-10-22T15:03:42.607Z,2.63
2022-10-22T15:06:09.317Z,2.80
2022-10-22T15:08:36.239Z,2.20
2022-10-22T15:11:02.934Z,4.10
2022-10-22T15:13:30.546Z,2.35
2022-10-22T15:15:58.249Z,1.77
2022-10-22T15:18:25.887Z,1.30
2022-10-22T15:21:00.191Z,3.03
2022-10-22T15:23:27.437Z,4.13
2022-10-22T15:25:54.364Z,1.05
2022-10-22T15:28:21.559Z,1.00
2022-10-22T15:30:59.672Z,3.03
2022-10-22T15:33:28.484Z,1.08
2022-10-22T15:35:56.138Z,2.70
2022-10-22T15:41:08.624Z,1.70
2022-10-22T15:43:35.841Z,1.45
2022-10-22T15:46:13.833Z,3.33
2022-10-22T15:48:40.595Z,2.03
2022-10-22T15:51:18.291Z,2.63
2022-10-22T15:56:12.864Z,6.85
2022-10-22T15:58:39.509Z,4.78
2022-10-22T16:01:08.458Z,3.65
2022-10-22T16:03:35.617Z,3.67
2022-10-22T16:06:02.988Z,3.67
2022-10-22T16:08:29.999Z,5.35
2022-10-22T16:10:56.843Z,5.53
2022-10-22T16:13:24.773Z,5.18
2022-10-22T16:15:52.056Z,5.95
2022-10-22T16:18:20.176Z,6.78
2022-10-22T16:20:46.947Z,5.75
2022-10-22T16:23:15.531Z,4.95
2022-10-22T16:25:42.807Z,3.30
2022-10-22T16:28:10.974Z,5.05
2022-10-22T16:30:38.391Z,3.70
2022-10-22T16:33:06.734Z,5.72
2022-10-22T16:35:33.446Z,5.07
2022-10-22T16:38:00.250Z,4.72
2022-10-22T16:40:27.091Z,4.82
2022-10-22T16:42:53.733Z,7.55
2022-10-22T16:45:20.388Z,5.78
2022-10-22T16:47:48.427Z,3.50
2022-10-22T16:50:16.252Z,8.93
2022-10-22T16:52:42.976Z,8.20
2022-10-22T16:55:09.774Z,7.28
2022-10-22T16:57:36.469Z,6.38
2022-10-22T17:00:05.209Z,7.00
2022-10-22T17:02:32.191Z,6.88
2022-10-22T17:04:58.890Z,8.18
2022-10-22T17:07:25.637Z,7.25
2022-10-22T17:09:52.366Z,7.72
2022-10-22T17:12:19.043Z,6.28
2022-10-22T17:14:45.776Z,8.70
2022-10-22T17:17:12.530Z,7.25
2022-10-22T17:19:39.362Z,6.25
2022-10-22T17:22:06.100Z,7.95
2022-10-22T17:24:32.832Z,6.20
2022-10-22T17:26:59.597Z,5.13
2022-10-22T17:29:26.307Z,12.27
2022-10-22T17:31:53.110Z,8.35
2022-10-22T17:34:19.869Z,9.60
2022-10-22T17:36:46.571Z,8.18
2022-10-22T17:39:17.760Z,10.43
2022-10-22T17:41:45.888Z,9.67
2022-10-22T17:44:13.533Z,13.23
2022-10-22T17:46:40.579Z,7.17
2022-10-22T17:49:18.311Z,11.27
2022-10-22T17:51:45.794Z,14.07
2022-10-22T17:54:13.838Z,17.93
2022-10-22T17:56:41.166Z,23.27
2022-10-22T17:59:10.499Z,39.93
2022-10-22T18:01:43.270Z,49.73
2022-10-22T18:04:13.185Z,33.63
2022-10-22T18:06:40.169Z,23.00
2022-10-22T18:09:08.598Z,23.53
2022-10-22T18:11:39.122Z,20.90
2022-10-22T18:14:06.159Z,20.93
2022-10-22T18:16:32.848Z,14.63
2022-10-22T18:19:00.310Z,18.80
2022-10-22T18:21:28.995Z,12.30
2022-10-22T18:23:57.260Z,19.27
2022-10-22T18:26:26.679Z,14.13
2022-10-22T18:28:54.490Z,23.23
2022-10-22T18:31:23.301Z,16.10
2022-10-22T18:33:50.156Z,13.83
2022-10-22T18:36:20.354Z,15.90
2022-10-22T18:38:51.720Z,11.50
2022-10-22T18:41:19.529Z,15.50
2022-10-22T18:43:53.005Z,10.23
2022-10-22T18:46:20.086Z,11.87
2022-10-22T18:48:47.139Z,11.20
2022-10-22T18:51:15.215Z,13.37
2022-10-22T18:53:44.170Z,12.23
2022-10-22T18:56:13.372Z,9.67
2022-10-22T18:58:41.520Z,6.33
2022-10-22T19:01:13.800Z,7.20
2022-10-22T19:03:41.119Z,6.73
2022-10-22T19:06:08.087Z,8.10
2022-10-22T19:08:36.299Z,8.00
2022-10-22T19:11:09.901Z,15.50
2022-10-22T19:13:37.049Z,8.80
2022-10-22T19:16:06.349Z,6.17
2022-10-22T19:18:33.533Z,6.77
2022-10-22T19:21:01.878Z,5.93
2022-10-22T19:23:32.458Z,6.87
2022-10-22T19:26:14.747Z,7.50
2022-10-22T19:28:41.769Z,6.03
2022-10-22T19:31:11.427Z,8.77
2022-10-22T19:33:38.935Z,9.53
2022-10-22T19:36:12.709Z,11.10
2022-10-22T19:38:41.126Z,11.53
2022-10-22T19:41:12.508Z,14.53
2022-10-22T19:43:40.449Z,19.07
2022-10-22T19:46:10.042Z,15.63
2022-10-22T19:48:37.591Z,14.03
2022-10-22T19:51:09.331Z,12.50
2022-10-22T19:53:37.998Z,12.87
2022-10-22T19:56:07.313Z,14.43
2022-10-22T19:58:34.984Z,13.47
2022-10-22T20:01:11.006Z,9.50
2022-10-22T20:03:38.524Z,10.33
2022-10-22T20:06:07.490Z,9.93
2022-10-22T20:08:37.827Z,7.50
2022-10-22T20:11:07.070Z,7.67
2022-10-22T20:13:35.174Z,8.07
2022-10-22T20:16:02.109Z,6.07
2022-10-22T20:18:28.963Z,7.30
2022-10-22T20:20:57.523Z,11.53
2022-10-22T20:23:24.184Z,8.87
2022-10-22T20:25:50.865Z,12.47
2022-10-22T20:28:17.536Z,9.53
2022-10-22T20:30:45.499Z,11.33
2022-10-22T20:33:13.003Z,13.50
2022-10-22T20:35:39.805Z,11.37
2022-10-22T20:38:08.083Z,7.63
2022-10-22T20:40:36.308Z,10.07
2022-10-22T20:43:03.204Z,11.80
2022-10-22T20:45:29.974Z,9.20
2022-10-22T20:48:02.618Z,6.73
2022-10-22T20:50:32.028Z,7.43
2022-10-22T20:52:59.462Z,11.03
2022-10-22T20:55:27.247Z,11.02
2022-10-22T20:57:54.081Z,20.20
2022-10-22T21:00:20.976Z,26.33
2022-10-22T21:02:47.692Z,25.73
2022-10-22T21:05:14.373Z,8.90
2022-10-22T21:07:41.517Z,13.80
2022-10-22T21:10:08.547Z,12.17
2022-10-22T21:12:35.424Z,10.93
2022-10-22T21:15:02.251Z,10.03
2022-10-22T21:17:29.087Z,12.50
2022-10-22T21:19:55.776Z,10.63
2022-10-22T21:22:22.451Z,20.00
2022-10-22T21:24:49.119Z,9.20
2022-10-22T21:27:15.801Z,13.97
2022-10-22T21:29:42.557Z,6.70
2022-10-22T21:32:09.378Z,9.47
2022-10-22T21:34:38.840Z,7.37
2022-10-22T21:37:05.989Z,7.10
2022-10-22T21:39:32.708Z,9.57
2022-10-22T21:41:59.418Z,11.73
2022-10-22T21:44:26.088Z,9.97
2022-10-22T21:46:53.136Z,15.23
2022-10-22T21:49:19.802Z,12.73
2022-10-22T21:51:46.632Z,12.90
2022-10-22T21:54:13.425Z,9.47
2022-10-22T21:56:40.468Z,9.87
2022-10-22T21:59:07.904Z,15.77
2022-10-22T22:01:35.614Z,9.50
2022-10-22T22:04:03.124Z,15.30
2022-10-22T22:06:33.357Z,11.57
2022-10-22T22:09:01.802Z,8.67
2022-10-22T22:11:29.557Z,12.47
2022-10-22T22:13:57.800Z,8.57
2022-10-22T22:16:30.546Z,8.70
2022-10-22T22:18:59.478Z,10.20
2022-10-22T22:21:26.494Z,8.60
2022-10-22T22:23:53.303Z,11.53
2022-10-22T22:26:25.472Z,11.07
2022-10-22T22:28:55.673Z,7.77
2022-10-22T22:31:25.095Z,9.50
2022-10-22T22:33:58.222Z,11.20
2022-10-22T22:36:25.021Z,8.03
2022-10-22T22:38:56.028Z,10.47
2022-10-22T22:41:23.192Z,11.10
2022-10-22T22:43:50.179Z,8.80
2022-10-22T22:46:17.325Z,11.30
2022-10-22T22:48:44.498Z,8.70
2022-10-22T22:51:11.543Z,11.00
2022-10-22T22:53:38.320Z,10.73
2022-10-22T22:56:09.663Z,16.87
2022-10-22T22:58:38.309Z,10.57
2022-10-22T23:01:20.732Z,7.50
2022-10-22T23:03:55.402Z,15.40
2022-10-22T23:06:22.650Z,8.23
2022-10-22T23:08:52.067Z,8.80
2022-10-22T23:11:20.591Z,8.80
2022-10-22T23:13:47.839Z,9.67
2022-10-22T23:16:19.937Z,8.50
2022-10-22T23:18:47.932Z,9.03
2022-10-22T23:21:20.872Z,7.30
2022-10-22T23:23:53.512Z,8.27
2022-10-22T23:26:23.598Z,6.77
2022-10-22T23:28:50.755Z,7.27
2022-10-22T23:31:19.423Z,9.53
2022-10-22T23:33:46.614Z,7.60
2022-10-22T23:36:13.743Z,6.80
2022-10-22T23:38:41.322Z,7.03
2022-10-22T23:41:08.500Z,11.57
2022-10-22T23:43:38.017Z,7.17
2022-10-22T23:46:09.585Z,8.73
2022-10-22T23:48:36.837Z,11.60
2022-10-22T23:51:05.802Z,8.30
2022-10-22T23:56:17.695Z,9.57
2022-10-22T23:58:44.814Z,6.93
